Kousekimaru No2 — JM5898 — position and weather

sailwx.info

Track history (hours):
 
Tides and Currents Weather Stations Pressure Air Temp Water Temp Dewpoint Dewpoint Depression Visibility Wind Speed Wind Dir Waves Ship Positions

Kousekimaru No2

Last reported at 2018-Jun-22 05:19 UTC. Time now 2018-Jun-23 00:56 UTC.
Position N 33°23' E 134°37'.

Length 160 m; draft 6.3 m.

Type: Cargo ship. MMSI: 431400685.

Date/timePositionNaut miles runAvg speedWind from/ knotsBaromVisibWave heightAir tempDewpointWater temp
2018-Jun-22 05:19N 33°23' E 134°37'1913.1
2018-Jun-22 03:54N 33°24' E 134°59'25311.5
2018-Jun-21 05:57N 35°06' E 139°40'612.2
2018-Jun-21 05:27N 35°11' E 139°45'410.2
2018-Jun-21 05:00N 35°15' E 139°46'612.8
2018-Jun-21 04:30N 35°21' E 139°42'612.6
2018-Jun-21 04:00N 35°26' E 139°46'713.7
2018-Jun-21 03:30N 35°30' E 139°53'712.3
2018-Jun-21 02:58N 35°32' E 140°01'2 0.0
2018-Jun-18 23:17N 35°32' E 140°03'3 4.9
2018-Jun-18 22:35N 35°32' E 139°59'0 0.0
2018-Jun-18 16:50N 35°32' E 139°59'0 0.0
2018-Jun-17 13:47N 35°32' E 139°59'0 0.0
2018-Jun-17 13:29N 35°32' E 139°59'2 2.0
2018-Jun-17 12:18N 35°32' E 139°56'310.9
2018-Jun-17 12:00N 35°29' E 139°53'612.2
2018-Jun-17 11:30N 35°25' E 139°48'612.0
2018-Jun-17 11:00N 35°20' E 139°44'611.8
2018-Jun-17 10:30N 35°15' E 139°47'611.4
2018-Jun-17 10:00N 35°09' E 139°46'  
2018-Jun-14 01:06N 35°04' E 139°40'115.0
2018-Jun-14 01:00N 35°05' E 139°41'714.2
2018-Jun-14 00:30N 35°11' E 139°46'611.5
2018-Jun-14 00:00N 35°17' E 139°45'612.3
2018-Jun-13 23:30N 35°22' E 139°42'714.1
2018-Jun-13 23:00N 35°27' E 139°48'1113.8
2018-Jun-13 22:13N 35°32' E 140°00'2 9.4
2018-Jun-13 22:00N 35°32' E 140°03'0 0.0
2018-Jun-12 23:43N 35°32' E 140°03'4 7.5
2018-Jun-12 23:09N 35°31' E 139°58'211.1
2018-Jun-12 23:00N 35°30' E 139°56'611.5
2018-Jun-12 22:30N 35°27' E 139°50'611.3
2018-Jun-12 22:00N 35°23' E 139°46'510.4
2018-Jun-12 21:30N 35°18' E 139°45'510.7
2018-Jun-12 21:00N 35°13' E 139°47'510.0
2018-Jun-12 20:29N 35°08' E 139°46'  
Track history (hours):
 
Tides and Currents Weather Stations Pressure Air Temp Water Temp Dewpoint Dewpoint Depression Visibility Wind Speed Wind Dir Waves Ship Positions

Kousekimaru No2

Last reported at 2018-Jun-22 05:19 UTC. Time now 2018-Jun-23 00:56 UTC.
Position N 33°23' E 134°37'.

Length 160 m; draft 6.3 m.

Type: Cargo ship. MMSI: 431400685.

Date/timePositionNaut miles runAvg speedWind from/ knotsBaromVisibWave heightAir tempDewpointWater temp
2018-Jun-22 05:19N 33°23' E 134°37'1913.1
2018-Jun-22 03:54N 33°24' E 134°59'25311.5
2018-Jun-21 05:57N 35°06' E 139°40'612.2
2018-Jun-21 05:27N 35°11' E 139°45'410.2
2018-Jun-21 05:00N 35°15' E 139°46'612.8
2018-Jun-21 04:30N 35°21' E 139°42'612.6
2018-Jun-21 04:00N 35°26' E 139°46'713.7
2018-Jun-21 03:30N 35°30' E 139°53'712.3
2018-Jun-21 02:58N 35°32' E 140°01'2 0.0
2018-Jun-18 23:17N 35°32' E 140°03'3 4.9
2018-Jun-18 22:35N 35°32' E 139°59'0 0.0
2018-Jun-18 16:50N 35°32' E 139°59'0 0.0
2018-Jun-17 13:47N 35°32' E 139°59'0 0.0
2018-Jun-17 13:29N 35°32' E 139°59'2 2.0
2018-Jun-17 12:18N 35°32' E 139°56'310.9
2018-Jun-17 12:00N 35°29' E 139°53'612.2
2018-Jun-17 11:30N 35°25' E 139°48'612.0
2018-Jun-17 11:00N 35°20' E 139°44'611.8
2018-Jun-17 10:30N 35°15' E 139°47'611.4
2018-Jun-17 10:00N 35°09' E 139°46'  
2018-Jun-14 01:06N 35°04' E 139°40'115.0
2018-Jun-14 01:00N 35°05' E 139°41'714.2
2018-Jun-14 00:30N 35°11' E 139°46'611.5
2018-Jun-14 00:00N 35°17' E 139°45'612.3
2018-Jun-13 23:30N 35°22' E 139°42'714.1
2018-Jun-13 23:00N 35°27' E 139°48'1113.8
2018-Jun-13 22:13N 35°32' E 140°00'2 9.4
2018-Jun-13 22:00N 35°32' E 140°03'0 0.0
2018-Jun-12 23:43N 35°32' E 140°03'4 7.5
2018-Jun-12 23:09N 35°31' E 139°58'211.1
2018-Jun-12 23:00N 35°30' E 139°56'611.5
2018-Jun-12 22:30N 35°27' E 139°50'611.3
2018-Jun-12 22:00N 35°23' E 139°46'510.4
2018-Jun-12 21:30N 35°18' E 139°45'510.7
2018-Jun-12 21:00N 35°13' E 139°47'510.0
2018-Jun-12 20:29N 35°08' E 139°46'  

Dump ship's entire track history